Time;durP1;ratioP1;P1;durP2;ratioP2;P2;SDS_P1;SDS_P2;PMS_P1;PMS_P2;Temp;Humidity;BMP_temperature;BMP_pressure;BME280_temperature;BME280_humidity;BME280_pressure;Samples;Min_cycle;Max_cycle;Signal;HPM_P1;HPM_P2
2021/01/15 00:00:07;;;;;;;2.10;1.90;;;17.60;52.80;;;;;;5084009;28;20249;-63
2021/01/15 00:02:33;;;;;;;2.40;2.20;;;17.50;52.80;;;;;;5068740;28;20292;-63
2021/01/15 00:04:59;;;;;;;2.60;2.40;;;17.50;52.80;;;;;;5087830;28;20186;-64
2021/01/15 00:07:24;;;;;;;2.00;1.90;;;17.50;52.80;;;;;;5087671;28;20220;-63
2021/01/15 00:09:50;;;;;;;2.60;2.40;;;17.50;52.80;;;;;;5088010;28;20174;-61
2021/01/15 00:12:15;;;;;;;2.08;1.88;;;17.50;52.80;;;;;;5087514;28;20227;-62
2021/01/15 00:14:41;;;;;;;2.42;2.20;;;17.40;52.70;;;;;;5087824;28;20609;-64
2021/01/15 00:17:06;;;;;;;1.83;1.73;;;17.50;52.70;;;;;;5087687;28;20540;-64
2021/01/15 00:19:32;;;;;;;2.83;2.63;;;17.40;52.70;;;;;;5087823;28;20603;-62
2021/01/15 00:21:58;;;;;;;2.00;1.90;;;17.40;52.70;;;;;;5069602;28;20233;-61
2021/01/15 00:24:23;;;;;;;2.97;2.20;;;17.40;52.70;;;;;;5087634;28;20174;-63
2021/01/15 00:26:49;;;;;;;2.13;1.90;;;17.40;52.70;;;;;;5087151;28;20188;-62
2021/01/15 00:29:15;;;;;;;2.67;2.30;;;17.30;52.60;;;;;;5087489;28;20225;-61
2021/01/15 00:31:44;;;;;;;2.35;2.15;;;17.30;52.70;;;;;;5087031;28;20200;-62
2021/01/15 00:34:10;;;;;;;2.08;1.98;;;17.30;52.70;;;;;;5087657;28;20170;-62
2021/01/15 00:36:37;;;;;;;2.22;2.03;;;17.30;52.60;;;;;;5087429;28;20170;-61
2021/01/15 00:39:08;;;;;;;2.40;2.20;;;17.30;52.60;;;;;;5087907;28;20181;-62
2021/01/15 00:41:37;;;;;;;2.40;2.05;;;17.30;52.60;;;;;;5087068;28;20193;-63
2021/01/15 00:44:03;;;;;;;2.17;2.00;;;17.20;52.50;;;;;;5069721;28;20193;-63
2021/01/15 00:46:31;;;;;;;2.17;1.88;;;17.30;52.50;;;;;;5087306;28;20177;-62
2021/01/15 00:49:04;;;;;;;2.25;2.05;;;17.30;52.60;;;;;;5087116;28;20206;-63
2021/01/15 00:51:30;;;;;;;2.10;1.90;;;17.20;52.50;;;;;;5069243;28;20219;-62
2021/01/15 00:53:56;;;;;;;1.98;1.88;;;17.20;52.60;;;;;;5069053;28;20174;-62
2021/01/15 00:56:22;;;;;;;2.65;1.90;;;17.20;52.50;;;;;;5086747;28;20718;-62
2021/01/15 00:58:48;;;;;;;1.88;1.77;;;17.20;52.50;;;;;;5086589;28;20216;-62
2021/01/15 01:01:15;;;;;;;2.40;2.20;;;17.10;52.60;;;;;;5087095;28;20184;-62
2021/01/15 01:03:41;;;;;;;2.28;2.08;;;17.10;52.50;;;;;;5086922;28;20277;-62
2021/01/15 01:06:13;;;;;;;2.40;2.20;;;17.20;52.60;;;;;;5086987;28;20956;-62
2021/01/15 01:08:39;;;;;;;2.30;2.10;;;17.10;52.50;;;;;;5086621;28;20623;-63
2021/01/15 01:11:10;;;;;;;2.15;2.05;;;17.10;52.60;;;;;;5086777;28;20185;-62
2021/01/15 01:13:36;;;;;;;2.15;1.83;;;17.10;52.50;;;;;;5086113;28;20174;-63
2021/01/15 01:16:01;;;;;;;2.30;2.10;;;17.10;52.60;;;;;;5086872;28;20178;-64
2021/01/15 01:18:27;;;;;;;3.30;2.50;;;17.00;52.50;;;;;;5086644;28;20188;-64
2021/01/15 01:20:52;;;;;;;2.42;2.25;;;17.00;52.50;;;;;;5086341;28;20291;-63
2021/01/15 01:23:18;;;;;;;2.03;1.70;;;17.00;52.60;;;;;;5086208;28;20267;-63
2021/01/15 01:25:43;;;;;;;2.70;2.30;;;17.00;52.60;;;;;;5086311;28;20177;-61
2021/01/15 01:28:09;;;;;;;2.15;1.95;;;17.00;52.60;;;;;;5086143;28;20649;-61
2021/01/15 01:30:36;;;;;;;2.08;1.90;;;17.00;52.50;;;;;;5086051;28;21000;-61
2021/01/15 01:33:01;;;;;;;2.33;2.10;;;17.00;52.50;;;;;;5086050;28;20174;-62
2021/01/15 01:35:27;;;;;;;2.13;2.00;;;17.00;52.60;;;;;;5086039;28;20184;-62
2021/01/15 01:37:52;;;;;;;2.92;2.10;;;17.00;52.60;;;;;;5085998;28;20170;-63
2021/01/15 01:40:20;;;;;;;2.10;1.90;;;17.00;52.60;;;;;;5086297;28;20638;-62
2021/01/15 01:42:46;;;;;;;2.55;1.90;;;16.90;52.50;;;;;;5085961;28;20216;-63
2021/01/15 01:45:12;;;;;;;2.17;2.03;;;17.00;52.60;;;;;;5085977;28;21074;-63
2021/01/15 01:47:37;;;;;;;1.90;1.80;;;16.90;52.60;;;;;;5086039;28;20224;-63
2021/01/15 01:50:04;;;;;;;1.98;1.88;;;16.90;52.50;;;;;;5085636;28;20173;-63
2021/01/15 01:52:29;;;;;;;2.20;2.00;;;16.90;52.60;;;;;;5085734;28;20181;-62
2021/01/15 01:54:55;;;;;;;2.65;1.98;;;16.90;52.60;;;;;;5085730;28;20212;-62
2021/01/15 01:57:20;;;;;;;2.20;1.98;;;16.90;52.60;;;;;;5067904;28;20182;-62
2021/01/15 01:59:46;;;;;;;2.40;2.20;;;16.90;52.60;;;;;;5085518;28;20232;-61
2021/01/15 02:02:12;;;;;;;2.33;1.90;;;16.80;52.50;;;;;;5067493;28;20202;-62
2021/01/15 02:04:37;;;;;;;2.40;2.20;;;16.90;52.50;;;;;;5085426;28;20179;-62
2021/01/15 02:07:03;;;;;;;2.20;2.10;;;16.80;52.50;;;;;;5085404;28;20182;-61
2021/01/15 02:09:53;;;;;;;2.15;2.00;;;16.80;52.50;;;;;;5067523;28;20170;-62
2021/01/15 02:12:36;;;;;;;2.15;1.95;;;16.80;52.50;;;;;;5070216;28;20201;-62
2021/01/15 02:15:11;;;;;;;2.13;1.92;;;16.80;52.50;;;;;;5085017;28;20284;-61
2021/01/15 02:17:42;;;;;;;1.90;1.80;;;16.80;52.50;;;;;;5067363;28;20169;-62
2021/01/15 02:20:37;;;;;;;2.22;1.77;;;16.80;52.50;;;;;;5067263;28;20166;-62
2021/01/15 02:23:14;;;;;;;1.88;1.77;;;16.70;52.50;;;;;;5084722;28;20209;-63
2021/01/15 02:26:27;;;;;;;1.88;1.75;;;16.70;52.50;;;;;;5066306;28;20685;-62
2021/01/15 02:28:53;;;;;;;3.03;2.40;;;16.70;52.50;;;;;;5022850;28;20209;-63
2021/01/15 02:31:37;;;;;;;2.35;2.15;;;16.70;52.50;;;;;;5085505;28;20620;-62
2021/01/15 02:34:31;;;;;;;2.33;2.13;;;16.70;52.50;;;;;;5068554;28;20269;-62
2021/01/15 02:37:16;;;;;;;2.42;2.22;;;16.70;52.50;;;;;;5084539;28;20654;-63
2021/01/15 02:40:04;;;;;;;2.40;2.17;;;16.70;52.50;;;;;;5066771;28;20633;-64
2021/01/15 02:42:39;;;;;;;2.13;2.03;;;16.70;52.50;;;;;;5066670;28;20216;-63
2021/01/15 02:45:08;;;;;;;2.47;2.28;;;16.60;52.40;;;;;;5084638;28;20185;-63
2021/01/15 02:47:51;;;;;;;2.40;2.08;;;16.60;52.40;;;;;;5067436;28;20173;-62
2021/01/15 02:50:21;;;;;;;1.90;1.80;;;16.60;52.50;;;;;;5085041;28;20176;-62
2021/01/15 02:52:47;;;;;;;1.75;1.65;;;16.60;52.40;;;;;;5084630;28;20186;-61
2021/01/15 02:55:13;;;;;;;2.08;1.88;;;16.60;52.50;;;;;;5085003;28;20170;-62
2021/01/15 02:57:39;;;;;;;1.90;1.80;;;16.60;52.50;;;;;;5084920;28;20547;-61
2021/01/15 03:00:06;;;;;;;2.00;1.90;;;16.60;52.50;;;;;;5084761;28;20197;-61
2021/01/15 03:02:49;;;;;;;2.17;1.92;;;16.60;53.10;;;;;;5084584;28;20250;-61
2021/01/15 03:05:22;;;;;;;2.20;2.00;;;16.60;52.40;;;;;;5066373;28;20247;-61
2021/01/15 03:07:50;;;;;;;1.92;1.83;;;16.50;52.40;;;;;;5084658;28;20174;-61
2021/01/15 03:10:19;;;;;;;2.67;2.15;;;16.60;52.50;;;;;;5067067;28;20176;-62
2021/01/15 03:12:44;;;;;;;1.95;1.85;;;16.60;52.40;;;;;;5066930;28;20676;-63
2021/01/15 03:15:11;;;;;;;2.30;2.10;;;16.60;52.50;;;;;;5066353;28;20181;-62
2021/01/15 03:17:37;;;;;;;2.42;2.22;;;16.50;52.40;;;;;;5084469;28;20623;-62
2021/01/15 03:20:03;;;;;;;2.10;2.00;;;16.50;52.40;;;;;;5066519;28;20174;-62
2021/01/15 03:22:29;;;;;;;2.20;1.95;;;16.50;52.50;;;;;;5066745;28;20213;-61
2021/01/15 03:24:57;;;;;;;2.15;2.05;;;16.50;52.40;;;;;;5066566;28;20658;-63
2021/01/15 03:27:23;;;;;;;2.30;2.20;;;16.50;52.50;;;;;;5066485;28;20581;-62
2021/01/15 03:29:49;;;;;;;2.33;2.13;;;16.50;52.50;;;;;;5084207;28;20224;-62
2021/01/15 03:32:15;;;;;;;2.10;2.00;;;16.40;52.40;;;;;;5084102;28;20619;-64
2021/01/15 03:34:41;;;;;;;2.30;2.10;;;16.50;52.50;;;;;;5099924;28;20634;-61
2021/01/15 03:37:06;;;;;;;2.40;2.20;;;16.40;52.50;;;;;;5070634;28;20174;-62
2021/01/15 03:39:32;;;;;;;2.00;1.80;;;16.40;52.40;;;;;;5088216;28;20178;-63
2021/01/15 03:41:58;;;;;;;2.15;1.95;;;16.40;52.40;;;;;;5088399;28;20213;-63
2021/01/15 03:44:23;;;;;;;1.92;1.80;;;16.40;52.40;;;;;;5088438;28;20186;-63
2021/01/15 03:46:55;;;;;;;2.47;2.28;;;16.40;52.50;;;;;;5088281;28;20181;-63
2021/01/15 03:49:21;;;;;;;2.15;1.95;;;16.40;52.50;;;;;;5087992;28;20178;-61
2021/01/15 03:51:47;;;;;;;2.22;2.03;;;16.40;52.40;;;;;;5070285;28;20165;-62
2021/01/15 03:54:13;;;;;;;1.95;1.85;;;16.40;52.40;;;;;;5088348;28;20185;-62
2021/01/15 03:56:39;;;;;;;2.08;1.98;;;16.30;52.40;;;;;;5088276;28;20196;-62
2021/01/15 03:59:04;;;;;;;2.15;2.00;;;16.30;52.30;;;;;;5088212;28;20174;-63
2021/01/15 04:01:30;;;;;;;1.90;1.80;;;16.20;52.40;;;;;;5087813;28;20506;-62
2021/01/15 04:03:55;;;;;;;2.10;2.00;;;16.30;52.40;;;;;;5087973;28;20178;-60
2021/01/15 04:06:24;;;;;;;2.38;2.17;;;16.30;52.30;;;;;;5088041;28;20642;-62
2021/01/15 04:08:50;;;;;;;2.50;2.30;;;16.30;52.40;;;;;;5088021;28;20639;-62
2021/01/15 04:11:16;;;;;;;2.20;2.10;;;16.30;52.30;;;;;;5087733;28;20200;-63
2021/01/15 04:13:41;;;;;;;2.28;2.08;;;16.30;52.40;;;;;;5069411;28;20220;-62
2021/01/15 04:16:07;;;;;;;2.30;2.10;;;16.30;52.40;;;;;;5087973;28;20182;-62
2021/01/15 04:18:32;;;;;;;2.45;2.30;;;16.30;52.40;;;;;;5087717;28;20682;-63
2021/01/15 04:21:05;;;;;;;1.98;1.88;;;16.20;52.30;;;;;;5087810;28;20977;-61
2021/01/15 04:23:30;;;;;;;1.83;1.73;;;16.20;52.40;;;;;;5087646;28;20205;-62
2021/01/15 04:25:56;;;;;;;2.10;1.98;;;16.20;52.40;;;;;;5087766;28;20177;-63
2021/01/15 04:28:22;;;;;;;2.13;1.95;;;16.20;52.40;;;;;;5087390;28;20178;-63
2021/01/15 04:30:47;;;;;;;2.10;2.00;;;16.20;52.30;;;;;;5087538;28;20178;-63
2021/01/15 04:33:13;;;;;;;1.75;1.65;;;16.20;52.30;;;;;;5087210;28;20170;-62
2021/01/15 04:35:38;;;;;;;2.17;2.00;;;16.20;52.40;;;;;;5087568;28;20184;-62
2021/01/15 04:38:04;;;;;;;2.20;2.10;;;16.20;52.40;;;;;;5087533;28;20184;-63
2021/01/15 04:40:30;;;;;;;2.45;2.25;;;16.20;52.40;;;;;;5087892;28;20178;-62
2021/01/15 04:42:55;;;;;;;2.40;1.70;;;16.20;52.40;;;;;;5068882;28;20225;-62
2021/01/15 04:45:21;;;;;;;2.05;1.85;;;16.20;52.40;;;;;;5069064;28;20177;-62
2021/01/15 04:47:47;;;;;;;2.58;2.38;;;16.20;52.50;;;;;;5068202;28;20170;-62
2021/01/15 04:50:14;;;;;;;2.40;2.20;;;16.20;52.40;;;;;;5069104;28;20170;-61
2021/01/15 04:52:47;;;;;;;2.67;2.47;;;16.10;52.50;;;;;;5087081;28;20172;-62
2021/01/15 04:55:16;;;;;;;2.15;2.00;;;16.10;52.50;;;;;;5069252;28;20178;-62
2021/01/15 04:57:41;;;;;;;2.40;2.20;;;16.10;52.50;;;;;;5069240;28;21012;-62
2021/01/15 05:00:08;;;;;;;2.20;2.00;;;16.10;52.40;;;;;;5068797;28;20279;-61
2021/01/15 05:02:34;;;;;;;2.10;2.00;;;16.10;52.50;;;;;;5068672;28;20205;-61
2021/01/15 05:05:00;;;;;;;2.00;1.90;;;16.10;52.60;;;;;;5087080;28;20219;-62
2021/01/15 05:07:26;;;;;;;2.05;1.95;;;16.10;52.60;;;;;;5068450;28;20605;-63
2021/01/15 05:09:51;;;;;;;2.10;2.00;;;16.10;52.50;;;;;;5068896;28;20178;-61
2021/01/15 05:12:17;;;;;;;2.05;1.95;;;16.10;52.60;;;;;;5068660;28;21014;-63
2021/01/15 05:14:48;;;;;;;2.40;2.28;;;16.00;52.50;;;;;;5068903;28;20174;-63
2021/01/15 05:17:14;;;;;;;2.13;1.92;;;16.00;52.50;;;;;;5086544;28;20177;-62
2021/01/15 05:19:41;;;;;;;2.28;2.08;;;16.00;52.60;;;;;;5086835;28;20174;-63
2021/01/15 05:22:07;;;;;;;2.10;2.00;;;16.00;52.50;;;;;;5086404;28;20198;-63
2021/01/15 05:24:33;;;;;;;2.30;2.20;;;16.00;52.50;;;;;;5086514;28;20174;-62
2021/01/15 05:27:38;;;;;;;1.90;1.80;;;16.00;52.50;;;;;;5086390;28;20627;-61
2021/01/15 05:30:14;;;;;;;2.17;2.08;;;16.00;52.50;;;;;;5086238;28;20201;-60
2021/01/15 05:32:40;;;;;;;2.22;2.13;;;16.00;52.50;;;;;;5086303;28;20261;-61
2021/01/15 05:35:06;;;;;;;2.33;2.13;;;15.90;52.50;;;;;;5067696;28;20667;-61
2021/01/15 05:37:32;;;;;;;2.03;1.90;;;16.00;52.60;;;;;;5086065;28;20198;-61
2021/01/15 05:40:01;;;;;;;2.33;2.13;;;16.00;52.60;;;;;;5085913;28;20253;-62
2021/01/15 05:42:27;;;;;;;2.20;2.10;;;15.90;52.60;;;;;;5067872;28;20997;-63
2021/01/15 05:44:52;;;;;;;2.10;2.00;;;15.90;52.60;;;;;;5086017;28;20170;-62
2021/01/15 05:47:18;;;;;;;2.53;2.33;;;15.90;52.60;;;;;;5067957;28;20174;-62
2021/01/15 05:49:56;;;;;;;2.08;1.98;;;15.90;52.50;;;;;;5085691;28;20174;-63
2021/01/15 05:52:21;;;;;;;2.50;2.00;;;15.90;52.60;;;;;;5085972;28;20234;-62
2021/01/15 05:54:47;;;;;;;2.13;1.98;;;15.90;52.50;;;;;;5067723;28;20636;-63
2021/01/15 05:57:24;;;;;;;2.40;2.20;;;15.90;52.50;;;;;;5085999;28;20220;-62
2021/01/15 05:59:49;;;;;;;2.22;2.05;;;15.90;52.60;;;;;;5069413;28;20174;-62
2021/01/15 06:02:15;;;;;;;2.40;2.20;;;15.90;52.50;;;;;;5085286;28;20200;-62
2021/01/15 06:04:40;;;;;;;2.00;1.90;;;15.90;52.60;;;;;;5067402;28;20231;-60
2021/01/15 06:07:09;;;;;;;2.00;1.90;;;16.00;52.60;;;;;;5085541;28;20174;-62
2021/01/15 06:09:38;;;;;;;1.98;1.88;;;16.10;52.80;;;;;;5085402;28;20227;-62
2021/01/15 06:12:05;;;;;;;2.35;1.92;;;16.30;52.70;;;;;;5067981;28;20165;-62
2021/01/15 06:14:31;;;;;;;1.50;1.40;;;16.60;52.50;;;;;;5067610;28;20162;-62
2021/01/15 06:17:20;;;;;;;1.67;1.58;;;16.80;52.10;;;;;;5085283;28;20588;-62
2021/01/15 06:19:53;;;;;;;1.95;1.85;;;17.10;51.70;;;;;;5074272;28;20186;-62
2021/01/15 06:22:44;;;;;;;1.80;1.70;;;17.50;51.10;;;;;;5085151;28;20225;-62
2021/01/15 06:25:24;;;;;;;1.85;1.75;;;17.80;50.40;;;;;;5085068;28;20261;-62
2021/01/15 06:27:55;;;;;;;1.80;1.70;;;18.10;49.70;;;;;;5084920;28;20165;-61
2021/01/15 06:30:25;;;;;;;1.67;1.58;;;18.40;49.40;;;;;;5085300;28;20205;-61
2021/01/15 06:32:51;;;;;;;1.95;1.77;;;18.50;49.20;;;;;;5084724;28;20186;-61
2021/01/15 06:35:32;;;;;;;1.50;1.40;;;18.60;49.10;;;;;;5085140;28;20534;-61
2021/01/15 06:38:06;;;;;;;1.60;1.50;;;18.60;48.90;;;;;;5085098;28;20186;-61
2021/01/15 06:40:33;;;;;;;1.90;1.80;;;18.70;48.90;;;;;;5068065;28;20231;-62
2021/01/15 06:42:59;;;;;;;2.03;1.83;;;18.70;48.90;;;;;;5084532;28;20993;-62
2021/01/15 06:45:25;;;;;;;1.67;1.58;;;18.70;48.90;;;;;;5084733;28;20178;-63
2021/01/15 06:47:53;;;;;;;1.70;1.60;;;18.70;48.90;;;;;;5066797;28;20630;-62
2021/01/15 06:50:18;;;;;;;1.58;1.48;;;18.70;49.00;;;;;;5085171;28;20973;-62
2021/01/15 06:52:49;;;;;;;1.50;1.40;;;18.70;49.10;;;;;;5084676;28;20174;-62
2021/01/15 06:55:17;;;;;;;2.00;1.70;;;18.60;49.10;;;;;;5066642;28;20166;-62
2021/01/15 06:57:49;;;;;;;1.80;1.70;;;18.60;49.10;;;;;;5067082;28;20166;-62
2021/01/15 07:00:20;;;;;;;1.73;1.63;;;18.70;49.20;;;;;;5066743;28;20166;-61
2021/01/15 07:03:04;;;;;;;1.73;1.63;;;18.60;49.20;;;;;;5084172;28;20210;-61
2021/01/15 07:05:30;;;;;;;1.90;1.80;;;18.50;49.50;;;;;;5066750;28;20260;-62
2021/01/15 07:07:56;;;;;;;1.63;1.52;;;18.40;50.30;;;;;;5084374;28;20682;-62
2021/01/15 07:10:21;;;;;;;1.67;1.58;;;18.20;49.80;;;;;;5066208;28;20253;-62
2021/01/15 07:12:47;;;;;;;1.80;1.70;;;18.20;50.00;;;;;;5084490;28;20181;-62
2021/01/15 07:15:14;;;;;;;1.60;1.50;;;18.10;50.10;;;;;;5066636;28;20254;-63
2021/01/15 07:17:47;;;;;;;1.50;1.40;;;18.10;50.20;;;;;;5084422;28;20542;-62
2021/01/15 07:20:13;;;;;;;1.63;1.52;;;18.00;50.20;;;;;;5084478;28;20266;-63
2021/01/15 07:22:43;;;;;;;1.67;1.55;;;18.10;50.30;;;;;;5084584;28;20278;-63
2021/01/15 07:25:10;;;;;;;1.63;1.52;;;18.00;50.30;;;;;;5084218;28;20182;-63
2021/01/15 07:27:36;;;;;;;2.45;1.38;;;18.10;50.20;;;;;;5084104;28;20173;-61
2021/01/15 07:30:03;;;;;;;1.75;1.52;;;18.10;50.30;;;;;;5066127;28;20549;-61
2021/01/15 07:32:32;;;;;;;2.45;2.17;;;18.10;50.20;;;;;;5084285;28;20185;-61
2021/01/15 07:35:01;;;;;;;1.80;1.70;;;18.10;50.10;;;;;;5066243;28;20181;-61
2021/01/15 07:37:27;;;;;;;1.70;1.60;;;18.10;50.10;;;;;;5084012;28;20178;-62
2021/01/15 07:40:08;;;;;;;1.92;1.83;;;18.10;50.20;;;;;;5083748;28;20173;-62
2021/01/15 07:42:53;;;;;;;1.77;1.67;;;18.00;50.20;;;;;;5084077;28;20213;-62
2021/01/15 07:45:24;;;;;;;1.92;1.83;;;18.00;50.50;;;;;;5084179;28;20269;-63
2021/01/15 07:48:01;;;;;;;1.88;1.77;;;17.90;50.60;;;;;;5084045;28;20378;-63
2021/01/15 07:50:27;;;;;;;1.65;1.55;;;17.80;50.70;;;;;;5083374;28;20627;-62
2021/01/15 07:53:19;;;;;;;2.20;2.10;;;17.70;50.80;;;;;;5084394;28;20170;-63
2021/01/15 07:55:48;;;;;;;1.85;1.75;;;17.70;50.80;;;;;;5062378;28;20185;-62
2021/01/15 07:58:15;;;;;;;2.08;1.90;;;17.70;50.80;;;;;;5084302;28;20230;-62
2021/01/15 08:00:41;;;;;;;1.90;1.80;;;17.70;50.80;;;;;;5084211;28;20261;-61
2021/01/15 08:03:07;;;;;;;2.00;1.90;;;17.80;50.70;;;;;;5083871;28;20331;-61
2021/01/15 08:05:32;;;;;;;1.85;1.75;;;17.80;50.70;;;;;;5066125;28;20178;-62
2021/01/15 08:08:04;;;;;;;2.13;2.00;;;17.80;50.50;;;;;;5084108;28;20220;-63
2021/01/15 08:10:30;;;;;;;2.13;1.92;;;17.90;50.50;;;;;;5084081;28;20208;-62
2021/01/15 08:12:55;;;;;;;1.73;1.63;;;17.90;50.50;;;;;;5084259;28;20209;-62
2021/01/15 08:15:31;;;;;;;1.90;1.80;;;17.90;50.50;;;;;;5083790;28;20208;-62
2021/01/15 08:18:01;;;;;;;1.77;1.67;;;17.80;50.60;;;;;;5083762;28;20219;-63
2021/01/15 08:20:26;;;;;;;1.60;1.50;;;17.70;50.70;;;;;;5083747;28;20170;-62
2021/01/15 08:22:52;;;;;;;2.00;1.90;;;17.70;50.80;;;;;;5067160;28;20266;-63
2021/01/15 08:25:27;;;;;;;2.30;2.10;;;17.60;50.90;;;;;;5087617;28;20189;-63
2021/01/15 08:27:53;;;;;;;2.10;2.00;;;17.50;51.00;;;;;;5087302;28;20552;-62
2021/01/15 08:30:19;;;;;;;3.30;1.80;;;17.50;51.00;;;;;;5069341;28;20201;-65
2021/01/15 08:32:45;;;;;;;2.03;1.85;;;17.50;51.10;;;;;;5087413;28;20193;-63
2021/01/15 08:35:24;;;;;;;1.85;1.75;;;17.60;51.10;;;;;;5087420;28;20213;-65
2021/01/15 08:37:57;;;;;;;2.13;2.03;;;17.60;51.20;;;;;;5087511;28;20260;-65
2021/01/15 08:40:30;;;;;;;2.85;1.90;;;17.60;51.10;;;;;;5087171;28;20631;-65
2021/01/15 08:42:56;;;;;;;3.30;2.00;;;17.70;51.10;;;;;;5086950;28;20271;-65
2021/01/15 08:45:27;;;;;;;1.77;1.67;;;17.70;50.90;;;;;;5086901;28;20174;-66
2021/01/15 08:47:54;;;;;;;2.25;2.05;;;17.60;50.90;;;;;;5069049;28;20186;-66
2021/01/15 08:50:19;;;;;;;2.50;2.30;;;17.60;51.00;;;;;;5087034;28;20260;-65
2021/01/15 08:52:45;;;;;;;2.13;2.03;;;17.50;51.10;;;;;;5069068;28;20177;-67
2021/01/15 08:55:11;;;;;;;2.17;1.98;;;17.50;51.20;;;;;;5068614;28;20182;-66
2021/01/15 08:57:37;;;;;;;2.10;2.00;;;17.40;51.40;;;;;;5068615;28;20184;-66
2021/01/15 09:00:12;;;;;;;3.20;1.83;;;17.40;51.40;;;;;;5069118;28;20514;-66
2021/01/15 09:02:39;;;;;;;2.10;2.00;;;17.40;51.30;;;;;;5086959;28;20291;-65
2021/01/15 09:05:09;;;;;;;3.15;2.08;;;17.50;51.30;;;;;;5087239;28;20260;-66
2021/01/15 09:07:45;;;;;;;2.30;2.10;;;17.50;51.20;;;;;;5068896;28;20173;-65
2021/01/15 09:10:12;;;;;;;2.05;1.80;;;17.50;51.20;;;;;;5068757;28;20197;-65
2021/01/15 09:12:44;;;;;;;2.90;2.17;;;17.50;51.20;;;;;;5086722;28;20228;-66
2021/01/15 09:15:23;;;;;;;2.40;2.00;;;17.60;51.10;;;;;;5086616;28;20960;-65
2021/01/15 09:17:49;;;;;;;2.10;1.90;;;17.60;51.00;;;;;;5086379;28;20177;-66
2021/01/15 09:20:17;;;;;;;2.53;2.00;;;17.60;51.00;;;;;;5068216;28;20173;-65
2021/01/15 09:22:43;;;;;;;3.90;2.20;;;17.60;51.00;;;;;;5068597;28;20251;-66
2021/01/15 09:25:13;;;;;;;2.00;1.90;;;17.70;51.10;;;;;;5068594;28;20185;-69
2021/01/15 09:27:38;;;;;;;2.28;2.08;;;17.70;51.10;;;;;;5086324;28;20714;-64
2021/01/15 09:30:05;;;;;;;2.55;2.13;;;17.60;51.20;;;;;;5068351;28;20273;-61
2021/01/15 09:32:30;;;;;;;3.53;2.30;;;17.60;51.60;;;;;;5067887;28;20547;-64
2021/01/15 09:34:56;;;;;;;8.80;2.08;;;17.50;51.90;;;;;;5086249;28;20169;-63
2021/01/15 09:37:21;;;;;;;3.08;2.30;;;17.50;52.10;;;;;;5086248;28;20170;-65
2021/01/15 09:39:47;;;;;;;4.10;2.10;;;17.50;52.10;;;;;;5085945;28;20303;-65
2021/01/15 09:42:14;;;;;;;2.72;2.22;;;17.50;52.00;;;;;;5085628;28;20193;-65
2021/01/15 09:44:39;;;;;;;3.88;2.38;;;17.50;52.00;;;;;;5086011;28;20186;-65
2021/01/15 09:47:06;;;;;;;2.20;2.00;;;17.50;51.90;;;;;;5086393;28;20170;-64
2021/01/15 09:49:31;;;;;;;2.30;2.08;;;17.60;52.00;;;;;;5086251;28;20624;-65
2021/01/15 09:51:57;;;;;;;4.40;1.90;;;17.60;51.90;;;;;;5085904;28;20173;-64
2021/01/15 09:54:23;;;;;;;3.05;2.10;;;17.60;51.90;;;;;;5068107;28;20651;-66
2021/01/15 09:56:48;;;;;;;4.07;2.15;;;17.60;51.90;;;;;;5085812;28;20181;-64
2021/01/15 09:59:15;;;;;;;2.50;2.00;;;17.60;52.00;;;;;;5067490;28;20334;-65
2021/01/15 10:01:41;;;;;;;2.90;2.03;;;17.60;52.10;;;;;;5085740;28;20170;-64
2021/01/15 10:04:07;;;;;;;2.95;1.80;;;17.50;52.30;;;;;;5085334;28;20627;-63
2021/01/15 10:06:36;;;;;;;2.72;2.13;;;17.40;52.30;;;;;;5067659;28;20185;-64
2021/01/15 10:09:02;;;;;;;3.72;1.80;;;17.40;52.40;;;;;;5085796;28;20166;-64
2021/01/15 10:11:33;;;;;;;2.35;2.10;;;17.50;53.20;;;;;;5085586;28;20577;-65
2021/01/15 10:14:00;;;;;;;2.90;2.55;;;17.50;52.50;;;;;;5067724;28;20181;-65
2021/01/15 10:16:26;;;;;;;2.00;1.90;;;17.50;52.50;;;;;;5066962;28;20186;-68
2021/01/15 10:18:52;;;;;;;5.43;2.58;;;17.50;52.40;;;;;;5057056;28;20173;-68
2021/01/15 10:21:24;;;;;;;2.40;2.20;;;17.50;52.30;;;;;;5081298;28;20233;-68
2021/01/15 10:23:54;;;;;;;3.50;2.13;;;17.50;52.30;;;;;;5087531;28;20239;-69
2021/01/15 10:26:24;;;;;;;3.00;2.70;;;17.40;52.30;;;;;;5072851;28;20239;-69
2021/01/15 10:28:57;;;;;;;3.30;2.28;;;17.40;52.40;;;;;;5084886;28;20297;-69
2021/01/15 10:31:40;;;;;;;2.45;2.20;;;17.30;52.40;;;;;;5085298;28;20190;-68
2021/01/15 10:34:05;;;;;;;3.80;2.28;;;17.30;52.60;;;;;;5093140;28;20218;-64
2021/01/15 10:36:31;;;;;;;3.05;2.40;;;17.30;52.40;;;;;;5105219;28;20173;-64
2021/01/15 10:38:57;;;;;;;3.25;2.17;;;17.20;52.60;;;;;;5105159;28;20177;-62
2021/01/15 10:41:36;;;;;;;3.72;2.50;;;17.30;52.70;;;;;;5104786;28;20222;-62
2021/01/15 10:44:03;;;;;;;3.22;2.42;;;17.30;52.60;;;;;;5105090;28;20200;-62
2021/01/15 10:46:29;;;;;;;4.05;2.42;;;17.40;52.60;;;;;;5104362;28;20199;-64
2021/01/15 10:48:54;;;;;;;3.47;2.30;;;17.40;52.50;;;;;;5087249;28;20165;-63
2021/01/15 10:51:20;;;;;;;2.20;1.98;;;17.40;52.50;;;;;;5095341;28;20189;-67
2021/01/15 10:53:46;;;;;;;2.65;2.05;;;17.40;52.60;;;;;;5084545;28;20162;-68
2021/01/15 10:56:11;;;;;;;2.75;2.15;;;17.40;52.60;;;;;;5084398;28;20230;-66
2021/01/15 10:58:37;;;;;;;3.83;2.08;;;17.30;52.70;;;;;;5084389;28;20173;-65
2021/01/15 11:01:03;;;;;;;2.63;2.05;;;17.30;52.80;;;;;;5084634;28;20226;-65
2021/01/15 11:03:28;;;;;;;2.13;1.92;;;17.30;52.80;;;;;;5084430;28;20205;-67
2021/01/15 11:05:54;;;;;;;4.03;2.20;;;17.30;52.80;;;;;;5084284;28;20971;-67
2021/01/15 11:08:19;;;;;;;2.92;2.13;;;17.30;52.80;;;;;;5084324;28;20249;-65
2021/01/15 11:10:45;;;;;;;2.70;1.75;;;17.40;52.80;;;;;;5083926;28;20319;-66
2021/01/15 11:13:10;;;;;;;3.25;2.00;;;17.30;52.70;;;;;;5084401;28;20190;-66
2021/01/15 11:15:36;;;;;;;2.08;1.75;;;17.40;52.70;;;;;;5065997;28;20169;-66
2021/01/15 11:18:01;;;;;;;2.28;2.05;;;17.40;52.70;;;;;;5083823;28;20169;-67
2021/01/15 11:20:27;;;;;;;2.55;1.90;;;17.40;52.70;;;;;;5084376;28;20170;-67
2021/01/15 11:22:53;;;;;;;2.53;1.98;;;17.30;52.70;;;;;;5083872;28;20685;-67
2021/01/15 11:25:18;;;;;;;2.13;1.92;;;17.30;52.90;;;;;;5091865;28;20550;-67
2021/01/15 11:27:45;;;;;;;2.47;2.10;;;17.30;52.90;;;;;;5104151;28;20172;-68
2021/01/15 11:30:11;;;;;;;2.97;1.85;;;17.20;52.80;;;;;;5069161;28;20288;-62
2021/01/15 11:32:38;;;;;;;2.20;2.00;;;17.20;53.00;;;;;;5104576;28;20184;-62
2021/01/15 11:35:05;;;;;;;3.22;2.00;;;17.20;53.00;;;;;;5104296;28;20221;-62
2021/01/15 11:37:33;;;;;;;2.65;1.90;;;17.30;53.00;;;;;;5104167;28;20275;-61
2021/01/15 11:39:59;;;;;;;3.90;2.60;;;17.30;53.10;;;;;;5104342;28;20165;-65
2021/01/15 11:42:24;;;;;;;2.90;2.20;;;17.30;52.90;;;;;;5103886;28;20196;-59
2021/01/15 11:44:50;;;;;;;2.63;2.03;;;17.30;52.80;;;;;;5104422;28;20184;-63
2021/01/15 11:47:15;;;;;;;2.80;2.53;;;17.30;52.80;;;;;;5104518;28;20183;-64
2021/01/15 11:49:41;;;;;;;3.72;2.33;;;17.20;52.30;;;;;;5104152;28;20729;-63
2021/01/15 11:52:07;;;;;;;3.38;2.72;;;17.20;52.30;;;;;;5104279;28;20589;-62
2021/01/15 11:54:33;;;;;;;5.55;2.58;;;17.20;52.50;;;;;;5104096;28;20176;-64
2021/01/15 11:56:58;;;;;;;2.15;1.98;;;17.30;52.30;;;;;;5088550;28;20247;-64
2021/01/15 11:59:24;;;;;;;5.68;2.30;;;17.30;52.30;;;;;;5108971;28;20263;-66
2021/01/15 12:01:54;;;;;;;2.40;2.03;;;17.40;52.30;;;;;;5108716;28;20175;-64
2021/01/15 12:04:19;;;;;;;3.33;1.90;;;17.60;52.10;;;;;;5108104;28;20256;-63
2021/01/15 12:06:53;;;;;;;2.10;1.80;;;17.80;51.90;;;;;;5107787;28;20260;-63
2021/01/15 12:09:18;;;;;;;3.05;2.00;;;18.30;51.20;;;;;;5107888;28;20249;-63
2021/01/15 12:11:44;;;;;;;3.72;2.65;;;18.60;50.60;;;;;;5108206;28;20197;-60
2021/01/15 12:14:10;;;;;;;2.92;1.88;;;18.90;50.10;;;;;;5108039;28;20169;-61
2021/01/15 12:16:35;;;;;;;3.05;2.20;;;19.00;49.70;;;;;;5107926;28;20174;-63
2021/01/15 12:19:01;;;;;;;2.20;2.00;;;19.10;49.60;;;;;;5108017;28;20654;-65
2021/01/15 12:21:26;;;;;;;2.88;1.90;;;19.20;49.60;;;;;;5107804;28;20173;-64
2021/01/15 12:23:52;;;;;;;3.53;2.08;;;19.30;49.60;;;;;;5107801;28;20711;-64
2021/01/15 12:26:17;;;;;;;5.32;2.22;;;19.40;49.40;;;;;;5073215;28;20552;-66
2021/01/15 12:28:43;;;;;;;5.57;2.08;;;19.50;50.00;;;;;;5087323;28;20186;-65
2021/01/15 12:31:09;;;;;;;2.58;1.80;;;19.50;49.20;;;;;;5086657;28;20322;-66
2021/01/15 12:33:34;;;;;;;2.05;1.83;;;19.60;49.30;;;;;;5086430;28;20194;-63
2021/01/15 12:36:00;;;;;;;3.92;1.80;;;19.60;49.00;;;;;;5086227;28;20264;-64
2021/01/15 12:38:25;;;;;;;2.15;1.95;;;19.70;49.20;;;;;;5086691;28;20185;-63
2021/01/15 12:40:51;;;;;;;2.15;1.92;;;19.70;49.30;;;;;;5086444;28;20221;-64
2021/01/15 12:43:17;;;;;;;2.70;2.08;;;19.60;49.20;;;;;;5086405;28;20209;-64
2021/01/15 12:45:47;;;;;;;3.35;2.00;;;19.60;49.30;;;;;;5087229;28;20181;-65
2021/01/15 12:48:14;;;;;;;2.17;1.77;;;19.60;49.40;;;;;;5069456;28;20623;-65
2021/01/15 12:50:40;;;;;;;1.90;1.80;;;19.60;49.50;;;;;;5069186;28;20170;-64
2021/01/15 12:53:06;;;;;;;3.47;2.13;;;19.60;49.60;;;;;;5069248;28;20594;-64